^^
Meteo Knjazevac Station Historical Data
Daily Summary for June 29, 2021 Units:  Both    English   Metric
Daily Weekly Monthly Yearly Custom
  High: Low: Average:
Temperature: 99.9 °F /  37.7 °C 66.9 °F /  19.4 °C 82.4 °F /  28 °C
Dew Point: 77 °F /  25 °C 63.9 °F /  17.7 °C 69.1 °F /  20.6 °C
Humidity: 91% 35% 68%
Wind Speed: 6mph /  9.7km/h - 1.9mph /  3.1km/h
Wind Gust: 10mph /  16.1km/h - -
Wind- - SW
Pressure: 30.06 in /  1017.8 hPa 29.95 in /  1014.1 hPa -
Precipitation: 0.00 in /  0 mm    
Historical Graphs
 
 
Tabular Data for June 29, 2021
Time Temperature Dew Point Pressure Wind Wind Speed Wind Gust Humidity Rainfall Rate (Hourly) solar Conditions
00:00 74.4 °F /  23.6 °C 69.3 °F /  20.7 °C 30.04in /  1017.2hPa West 2mph /  3.2km/h 3mph /  4.8km/h 84% 0.00in /  0mm 0 W/m2
00:10 74.1 °F /  23.4 °C 69 °F /  20.6 °C 30.04in /  1017.2hPa Calm   2mph /  3.2km/h 84% 0.00in /  0mm 0 W/m2
00:20 73.8 °F /  23.2 °C 69 °F /  20.6 °C 30.04in /  1017.2hPa NNW 1mph /  1.6km/h 2mph /  3.2km/h 85% 0.00in /  0mm 0 W/m2
00:30 73.4 °F /  23 °C 68.6 °F /  20.3 °C 30.04in /  1017.2hPa NW 1mph /  1.6km/h 2mph /  3.2km/h 85% 0.00in /  0mm 0 W/m2
00:40 73.4 °F /  23 °C 69 °F /  20.6 °C 30.03in /  1016.8hPa North 1mph /  1.6km/h 2mph /  3.2km/h 86% 0.00in /  0mm 0 W/m2
00:50 73 °F /  22.8 °C 68.5 °F /  20.3 °C 30.04in /  1017.2hPa West 3mph /  4.8km/h 5mph /  8km/h 86% 0.00in /  0mm 0 W/m2
01:00 72.7 °F /  22.6 °C 68.9 °F /  20.5 °C 30.04in /  1017.2hPa WNW 1mph /  1.6km/h 5mph /  8km/h 88% 0.00in /  0mm 0 W/m2
01:10 72.3 °F /  22.4 °C 68.2 °F /  20.1 °C 30.04in /  1017.2hPa Calm   3mph /  4.8km/h 87% 0.00in /  0mm 0 W/m2
01:20 72.1 °F /  22.3 °C 68.4 °F /  20.2 °C 30.04in /  1017.2hPa Calm   3mph /  4.8km/h 88% 0.00in /  0mm 0 W/m2
01:30 71.8 °F /  22.1 °C 68 °F /  20 °C 30.03in /  1016.8hPa Calm   3mph /  4.8km/h 88% 0.00in /  0mm 0 W/m2
01:40 71.7 °F /  22.1 °C 68 °F /  20 °C 30.03in /  1016.8hPa Calm   2mph /  3.2km/h 88% 0.00in /  0mm 0 W/m2
01:50 71.6 °F /  22 °C 68.2 °F /  20.1 °C 30.03in /  1016.8hPa Calm   2mph /  3.2km/h 89% 0.00in /  0mm 0 W/m2
02:00 71.6 °F /  22 °C 68.2 °F /  20.1 °C 30.03in /  1016.8hPa Calm   2mph /  3.2km/h 89% 0.00in /  0mm 0 W/m2
02:10 71.8 °F /  22.1 °C 67.4 °F /  19.7 °C 30.03in /  1016.8hPa East 2mph /  3.2km/h 7mph /  11.3km/h 86% 0.00in /  0mm 0 W/m2
02:20 71.6 °F /  22 °C 67.9 °F /  19.9 °C 30.04in /  1017.2hPa SW 2mph /  3.2km/h 6mph /  9.7km/h 88% 0.00in /  0mm 0 W/m2
02:30 71.2 °F /  21.8 °C 67.5 °F /  19.7 °C 30.04in /  1017.2hPa NW 2mph /  3.2km/h 10mph /  16.1km/h 88% 0.00in /  0mm 0 W/m2
02:40 71.4 °F /  21.9 °C 67.7 °F /  19.8 °C 30.03in /  1016.8hPa NNE 1mph /  1.6km/h 3mph /  4.8km/h 88% 0.00in /  0mm 0 W/m2
02:50 71.4 °F /  21.9 °C 67.7 °F /  19.8 °C 30.04in /  1017.2hPa NW 1mph /  1.6km/h 5mph /  8km/h 88% 0.00in /  0mm 0 W/m2
03:00 71.2 °F /  21.8 °C 67.5 °F /  19.7 °C 30.03in /  1016.8hPa WNW 1mph /  1.6km/h 2mph /  3.2km/h 88% 0.00in /  0mm 0 W/m2
03:10 71.1 °F /  21.7 °C 67.3 °F /  19.6 °C 30.03in /  1016.8hPa Calm   4mph /  6.4km/h 88% 0.00in /  0mm 0 W/m2
03:20 71.1 °F /  21.7 °C 66.7 °F /  19.3 °C 30.03in /  1016.8hPa Calm   3mph /  4.8km/h 86% 0.00in /  0mm 0 W/m2
03:30 71.2 °F /  21.8 °C 66.8 °F /  19.3 °C 30.03in /  1016.8hPa NE 1mph /  1.6km/h 2mph /  3.2km/h 86% 0.00in /  0mm 0 W/m2
03:40 70.9 °F /  21.6 °C 66.5 °F /  19.2 °C 30.03in /  1016.8hPa Calm   3mph /  4.8km/h 86% 0.00in /  0mm 0 W/m2
03:50 70.5 °F /  21.4 °C 66.5 °F /  19.2 °C 30.03in /  1016.8hPa West 2mph /  3.2km/h 5mph /  8km/h 87% 0.00in /  0mm 0 W/m2
04:00 70.5 °F /  21.4 °C 66.1 °F /  18.9 °C 30.03in /  1016.8hPa Calm   5mph /  8km/h 86% 0.00in /  0mm 0 W/m2
04:10 69.8 °F /  21 °C 66.1 °F /  18.9 °C 30.03in /  1016.8hPa WNW 1mph /  1.6km/h 2mph /  3.2km/h 88% 0.00in /  0mm 0 W/m2
04:20 69.4 °F /  20.8 °C 66.1 °F /  18.9 °C 30.02in /  1016.5hPa West 2mph /  3.2km/h 7mph /  11.3km/h 89% 0.00in /  0mm 0 W/m2
04:30 69.3 °F /  20.7 °C 65.9 °F /  18.8 °C 30.03in /  1016.8hPa WNW 1mph /  1.6km/h 3mph /  4.8km/h 89% 0.00in /  0mm 0 W/m2
04:40 68.9 °F /  20.5 °C 65.5 °F /  18.6 °C 30.03in /  1016.8hPa NW 1mph /  1.6km/h 4mph /  6.4km/h 89% 0.00in /  0mm 0 W/m2
04:50 68.7 °F /  20.4 °C 65.3 °F /  18.5 °C 30.03in /  1016.8hPa NNW 1mph /  1.6km/h 3mph /  4.8km/h 89% 0.00in /  0mm 0 W/m2
05:00 68.5 °F /  20.3 °C 65.4 °F /  18.6 °C 30.03in /  1016.8hPa Calm   2mph /  3.2km/h 90% 0.00in /  0mm 0 W/m2
05:10 68 °F /  20 °C 65 °F /  18.3 °C 30.03in /  1016.8hPa WNW 1mph /  1.6km/h 2mph /  3.2km/h 90% 0.00in /  0mm 0 W/m2
05:20 67.5 °F /  19.7 °C 64.4 °F /  18 °C 30.04in /  1017.2hPa WSW 1mph /  1.6km/h 2mph /  3.2km/h 90% 0.00in /  0mm 4 W/m2
05:30 67.1 °F /  19.5 °C 64.1 °F /  17.8 °C 30.04in /  1017.2hPa WNW 1mph /  1.6km/h 4mph /  6.4km/h 90% 0.00in /  0mm 10 W/m2
05:40 67.1 °F /  19.5 °C 64.1 °F /  17.8 °C 30.04in /  1017.2hPa North 1mph /  1.6km/h 3mph /  4.8km/h 90% 0.00in /  0mm 18 W/m2
05:50 67.1 °F /  19.5 °C 64.1 °F /  17.8 °C 30.04in /  1017.2hPa Calm   4mph /  6.4km/h 90% 0.00in /  0mm 29 W/m2
06:00 67.1 °F /  19.5 °C 64.1 °F /  17.8 °C 30.04in /  1017.2hPa NNW 1mph /  1.6km/h 2mph /  3.2km/h 90% 0.00in /  0mm 41 W/m2
06:10 67.2 °F /  19.6 °C 64.2 °F /  17.9 °C 30.04in /  1017.2hPa West 1mph /  1.6km/h 2mph /  3.2km/h 90% 0.00in /  0mm 54 W/m2
06:20 67.1 °F /  19.5 °C 64.4 °F /  18 °C 30.05in /  1017.5hPa Calm   3mph /  4.8km/h 91% 0.00in /  0mm 67 W/m2
06:30 66.9 °F /  19.4 °C 64.2 °F /  17.9 °C 30.05in /  1017.5hPa West 1mph /  1.6km/h 4mph /  6.4km/h 91% 0.00in /  0mm 102 W/m2
06:40 66.9 °F /  19.4 °C 63.9 °F /  17.7 °C 30.05in /  1017.5hPa Calm   3mph /  4.8km/h 90% 0.00in /  0mm 112 W/m2
06:50 67.1 °F /  19.5 °C 64.4 °F /  18 °C 30.05in /  1017.5hPa NW 1mph /  1.6km/h 2mph /  3.2km/h 91% 0.00in /  0mm 152 W/m2
07:00 67.5 °F /  19.7 °C 64.4 °F /  18 °C 30.05in /  1017.5hPa Calm   2mph /  3.2km/h 90% 0.00in /  0mm 179 W/m2
07:10 67.6 °F /  19.8 °C 64.9 °F /  18.3 °C 30.05in /  1017.5hPa NNW 1mph /  1.6km/h 3mph /  4.8km/h 91% 0.00in /  0mm 211 W/m2
07:20 68.2 °F /  20.1 °C 65.1 °F /  18.4 °C 30.05in /  1017.5hPa WNW 1mph /  1.6km/h 3mph /  4.8km/h 90% 0.00in /  0mm 246 W/m2
07:30 68.5 °F /  20.3 °C 65.5 °F /  18.6 °C 30.05in /  1017.5hPa Calm   3mph /  4.8km/h 90% 0.00in /  0mm 281 W/m2
07:40 69.4 °F /  20.8 °C 66.1 °F /  18.9 °C 30.05in /  1017.5hPa Calm   2mph /  3.2km/h 89% 0.00in /  0mm 316 W/m2
07:50 70 °F /  21.1 °C 66.3 °F /  19.1 °C 30.05in /  1017.5hPa Calm   2mph /  3.2km/h 88% 0.00in /  0mm 347 W/m2
08:00 70.9 °F /  21.6 °C 66.1 °F /  18.9 °C 30.05in /  1017.5hPa WSW 2mph /  3.2km/h 3mph /  4.8km/h 85% 0.00in /  0mm 386 W/m2
08:10 71.7 °F /  22.1 °C 66.6 °F /  19.2 °C 30.05in /  1017.5hPa West 2mph /  3.2km/h 5mph /  8km/h 84% 0.00in /  0mm 414 W/m2
08:20 72.6 °F /  22.6 °C 67.1 °F /  19.5 °C 30.05in /  1017.5hPa Calm   5mph /  8km/h 83% 0.00in /  0mm 447 W/m2
08:30 73.3 °F /  22.9 °C 67.8 °F /  19.9 °C 30.05in /  1017.5hPa WNW 1mph /  1.6km/h 3mph /  4.8km/h 83% 0.00in /  0mm 484 W/m2
08:40 74.4 °F /  23.6 °C 68.9 °F /  20.5 °C 30.06in /  1017.8hPa WNW 1mph /  1.6km/h 3mph /  4.8km/h 83% 0.00in /  0mm 515 W/m2
08:50 75.5 °F /  24.2 °C 68.5 °F /  20.3 °C 30.05in /  1017.5hPa South 2mph /  3.2km/h 5mph /  8km/h 79% 0.00in /  0mm 551 W/m2
09:00 76.9 °F /  24.9 °C 70.3 °F /  21.3 °C 30.05in /  1017.5hPa SW 2mph /  3.2km/h 5mph /  8km/h 80% 0.00in /  0mm 583 W/m2
09:10 79.3 °F /  26.3 °C 71 °F /  21.7 °C 30.05in /  1017.5hPa SSE 2mph /  3.2km/h 5mph /  8km/h 76% 0.00in /  0mm 609 W/m2
09:20 81.4 °F /  27.4 °C 71.5 °F /  21.9 °C 30.05in /  1017.5hPa SSE 2mph /  3.2km/h 5mph /  8km/h 72% 0.00in /  0mm 643 W/m2
09:30 83.2 °F /  28.4 °C 71.5 °F /  21.9 °C 30.04in /  1017.2hPa SE 3mph /  4.8km/h 8mph /  12.9km/h 68% 0.00in /  0mm 671 W/m2
09:40 84.5 °F /  29.2 °C 72.3 °F /  22.4 °C 30.04in /  1017.2hPa East 3mph /  4.8km/h 6mph /  9.7km/h 67% 0.00in /  0mm 698 W/m2
09:50 85.8 °F /  29.9 °C 72.7 °F /  22.6 °C 30.04in /  1017.2hPa ESE 3mph /  4.8km/h 8mph /  12.9km/h 65% 0.00in /  0mm 724 W/m2
10:00 87.1 °F /  30.6 °C 73.9 °F /  23.3 °C 30.04in /  1017.2hPa ESE 3mph /  4.8km/h 7mph /  11.3km/h 65% 0.00in /  0mm 749 W/m2
10:10 87.9 °F /  31.1 °C 74.2 °F /  23.4 °C 30.04in /  1017.2hPa ESE 2mph /  3.2km/h 7mph /  11.3km/h 64% 0.00in /  0mm 776 W/m2
10:20 89 °F /  31.7 °C 75.2 °F /  24 °C 30.04in /  1017.2hPa ESE 2mph /  3.2km/h 7mph /  11.3km/h 64% 0.00in /  0mm 798 W/m2
10:30 89.9 °F /  32.2 °C 75.1 °F /  23.9 °C 30.04in /  1017.2hPa SE 3mph /  4.8km/h 7mph /  11.3km/h 62% 0.00in /  0mm 819 W/m2
10:40 90.6 °F /  32.6 °C 75.8 °F /  24.3 °C 30.04in /  1017.2hPa SSE 2mph /  3.2km/h 7mph /  11.3km/h 62% 0.00in /  0mm 836 W/m2
10:50 91.6 °F /  33.1 °C 75.2 °F /  24 °C 30.04in /  1017.2hPa South 2mph /  3.2km/h 7mph /  11.3km/h 59% 0.00in /  0mm 290 W/m2
11:00 92.3 °F /  33.5 °C 72.1 °F /  22.3 °C 30.03in /  1016.8hPa South 3mph /  4.8km/h 7mph /  11.3km/h 52% 0.00in /  0mm 870 W/m2
11:10 92.8 °F /  33.8 °C 72 °F /  22.2 °C 30.03in /  1016.8hPa South 2mph /  3.2km/h 8mph /  12.9km/h 51% 0.00in /  0mm 880 W/m2
11:20 93.2 °F /  34 °C 71.2 °F /  21.8 °C 30.03in /  1016.8hPa SW 5mph /  8km/h 7mph /  11.3km/h 49% 0.00in /  0mm 873 W/m2
11:30 93.6 °F /  34.2 °C 71.5 °F /  21.9 °C 30.03in /  1016.8hPa SW 3mph /  4.8km/h 7mph /  11.3km/h 49% 0.00in /  0mm 908 W/m2
11:40 94.1 °F /  34.5 °C 71.4 °F /  21.9 °C 30.02in /  1016.5hPa SW 2mph /  3.2km/h 7mph /  11.3km/h 48% 0.00in /  0mm 917 W/m2
11:50 94.4 °F /  34.7 °C 71.7 °F /  22.1 °C 30.02in /  1016.5hPa SSW 2mph /  3.2km/h 7mph /  11.3km/h 48% 0.00in /  0mm 925 W/m2
12:00 95 °F /  35 °C 71.6 °F /  22 °C 30.02in /  1016.5hPa South 3mph /  4.8km/h 6mph /  9.7km/h 47% 0.00in /  0mm 931 W/m2
12:10 95.2 °F /  35.1 °C 70.5 °F /  21.4 °C 30.02in /  1016.5hPa SW 3mph /  4.8km/h 6mph /  9.7km/h 45% 0.00in /  0mm 935 W/m2
12:20 95.5 °F /  35.3 °C 72 °F /  22.2 °C 30.01in /  1016.1hPa SSW 2mph /  3.2km/h 7mph /  11.3km/h 47% 0.00in /  0mm 939 W/m2
12:30 95.9 °F /  35.5 °C 70.5 °F /  21.4 °C 30.01in /  1016.1hPa South 6mph /  9.7km/h 8mph /  12.9km/h 44% 0.00in /  0mm 940 W/m2
12:40 96.3 °F /  35.7 °C 71.5 °F /  21.9 °C 30.01in /  1016.1hPa SE 5mph /  8km/h 6mph /  9.7km/h 45% 0.00in /  0mm 940 W/m2
12:50 96.4 °F /  35.8 °C 71 °F /  21.7 °C 30.01in /  1016.1hPa SSE 6mph /  9.7km/h 8mph /  12.9km/h 44% 0.00in /  0mm 939 W/m2
13:00 96.6 °F /  35.9 °C 71.1 °F /  21.7 °C 30.01in /  1016.1hPa SE 3mph /  4.8km/h 6mph /  9.7km/h 44% 0.00in /  0mm 935 W/m2
13:10 96.6 °F /  35.9 °C 70.5 °F /  21.4 °C 30.00in /  1015.8hPa SE 3mph /  4.8km/h 7mph /  11.3km/h 43% 0.00in /  0mm 931 W/m2
13:20 97 °F /  36.1 °C 71.5 °F /  21.9 °C 30.00in /  1015.8hPa South 3mph /  4.8km/h 7mph /  11.3km/h 44% 0.00in /  0mm 925 W/m2
13:30 97.7 °F /  36.5 °C 71.4 °F /  21.9 °C 30.00in /  1015.8hPa SSW 5mph /  8km/h 8mph /  12.9km/h 43% 0.00in /  0mm 917 W/m2
13:40 97.9 °F /  36.6 °C 70.9 °F /  21.6 °C 30.00in /  1015.8hPa SW 3mph /  4.8km/h 7mph /  11.3km/h 42% 0.00in /  0mm 908 W/m2
13:50 98.1 °F /  36.7 °C 70.3 °F /  21.3 °C 30.00in /  1015.8hPa SSW 6mph /  9.7km/h 8mph /  12.9km/h 41% 0.00in /  0mm 897 W/m2
14:00 98.1 °F /  36.7 °C 71.1 °F /  21.7 °C 29.99in /  1015.5hPa South 3mph /  4.8km/h 9mph /  14.5km/h 42% 0.00in /  0mm 885 W/m2
14:10 97.9 °F /  36.6 °C 69.5 °F /  20.8 °C 29.99in /  1015.5hPa SSE 5mph /  8km/h 10mph /  16.1km/h 40% 0.00in /  0mm 871 W/m2
14:20 98.1 °F /  36.7 °C 68.9 °F /  20.5 °C 29.99in /  1015.5hPa SSE 5mph /  8km/h 9mph /  14.5km/h 39% 0.00in /  0mm 856 W/m2
14:30 98.2 °F /  36.8 °C 69 °F /  20.6 °C 29.99in /  1015.5hPa SSE 6mph /  9.7km/h 10mph /  16.1km/h 39% 0.00in /  0mm 840 W/m2
14:40 98.2 °F /  36.8 °C 69 °F /  20.6 °C 29.99in /  1015.5hPa SSE 5mph /  8km/h 9mph /  14.5km/h 39% 0.00in /  0mm 822 W/m2
14:50 97.9 °F /  36.6 °C 68.7 °F /  20.4 °C 29.98in /  1015.1hPa SSE 6mph /  9.7km/h 9mph /  14.5km/h 39% 0.00in /  0mm 804 W/m2
15:00 98.4 °F /  36.9 °C 69.9 °F /  21.1 °C 29.98in /  1015.1hPa South 5mph /  8km/h 8mph /  12.9km/h 40% 0.00in /  0mm 783 W/m2
15:10 98.6 °F /  37 °C 69.4 °F /  20.8 °C 29.98in /  1015.1hPa South 3mph /  4.8km/h 7mph /  11.3km/h 39% 0.00in /  0mm 762 W/m2
15:20 98.6 °F /  37 °C 69.4 °F /  20.8 °C 29.97in /  1014.8hPa South 3mph /  4.8km/h 7mph /  11.3km/h 39% 0.00in /  0mm 740 W/m2
15:30 99.1 °F /  37.3 °C 68.2 °F /  20.1 °C 29.97in /  1014.8hPa SW 5mph /  8km/h 8mph /  12.9km/h 37% 0.00in /  0mm 716 W/m2
15:40 99.4 °F /  37.4 °C 68.6 °F /  20.3 °C 29.97in /  1014.8hPa SW 3mph /  4.8km/h 8mph /  12.9km/h 37% 0.00in /  0mm 689 W/m2
15:50 99.5 °F /  37.5 °C 67 °F /  19.4 °C 29.97in /  1014.8hPa SW 5mph /  8km/h 7mph /  11.3km/h 35% 0.00in /  0mm 660 W/m2
16:00 99.5 °F /  37.5 °C 67 °F /  19.4 °C 29.96in /  1014.4hPa SSW 5mph /  8km/h 8mph /  12.9km/h 35% 0.00in /  0mm 630 W/m2
16:10 99.7 °F /  37.6 °C 67.2 °F /  19.6 °C 29.96in /  1014.4hPa SW 5mph /  8km/h 7mph /  11.3km/h 35% 0.00in /  0mm 598 W/m2
16:20 99.7 °F /  37.6 °C 68.8 °F /  20.4 °C 29.96in /  1014.4hPa SW 2mph /  3.2km/h 6mph /  9.7km/h 37% 0.00in /  0mm 569 W/m2
16:30 99.7 °F /  37.6 °C 67.2 °F /  19.6 °C 29.96in /  1014.4hPa SW 5mph /  8km/h 6mph /  9.7km/h 35% 0.00in /  0mm 534 W/m2
16:40 99.7 °F /  37.6 °C 68.8 °F /  20.4 °C 29.95in /  1014.1hPa SW 3mph /  4.8km/h 6mph /  9.7km/h 37% 0.00in /  0mm 503 W/m2
16:50 99.9 °F /  37.7 °C 70.5 °F /  21.4 °C 29.95in /  1014.1hPa SSW 3mph /  4.8km/h 5mph /  8km/h 39% 0.00in /  0mm 464 W/m2
17:00 99.7 °F /  37.6 °C 70.3 °F /  21.3 °C 29.95in /  1014.1hPa South 2mph /  3.2km/h 6mph /  9.7km/h 39% 0.00in /  0mm 434 W/m2
17:10 99.3 °F /  37.4 °C 69.2 °F /  20.7 °C 29.95in /  1014.1hPa South 2mph /  3.2km/h 6mph /  9.7km/h 38% 0.00in /  0mm 397 W/m2
17:20 98.8 °F /  37.1 °C 68.8 °F /  20.4 °C 29.95in /  1014.1hPa SSE 3mph /  4.8km/h 6mph /  9.7km/h 38% 0.00in /  0mm 363 W/m2
17:30 98.8 °F /  37.1 °C 71.7 °F /  22.1 °C 29.95in /  1014.1hPa SSW 2mph /  3.2km/h 4mph /  6.4km/h 42% 0.00in /  0mm 332 W/m2
17:40 98.6 °F /  37 °C 74.9 °F /  23.8 °C 29.95in /  1014.1hPa SSW 2mph /  3.2km/h 3mph /  4.8km/h 47% 0.00in /  0mm 301 W/m2
17:50 98.3 °F /  36.8 °C 75.2 °F /  24 °C 29.95in /  1014.1hPa South 2mph /  3.2km/h 4mph /  6.4km/h 48% 0.00in /  0mm 182 W/m2
18:00 97.3 °F /  36.3 °C 76.8 °F /  24.9 °C 29.95in /  1014.1hPa South 1mph /  1.6km/h 2mph /  3.2km/h 52% 0.00in /  0mm 97 W/m2
18:10 95.8 °F /  35.4 °C 77 °F /  25 °C 29.95in /  1014.1hPa South 1mph /  1.6km/h 3mph /  4.8km/h 55% 0.00in /  0mm 66 W/m2
18:20 94.3 °F /  34.6 °C 76.8 °F /  24.9 °C 29.95in /  1014.1hPa Calm   3mph /  4.8km/h 57% 0.00in /  0mm 67 W/m2
18:30 92.9 °F /  33.8 °C 76.4 °F /  24.7 °C 29.95in /  1014.1hPa SW 2mph /  3.2km/h 4mph /  6.4km/h 59% 0.00in /  0mm 75 W/m2
18:40 91.3 °F /  32.9 °C 74.9 °F /  23.8 °C 29.95in /  1014.1hPa SSW 3mph /  4.8km/h 6mph /  9.7km/h 59% 0.00in /  0mm 78 W/m2
18:50 90.3 °F /  32.4 °C 74.5 °F /  23.6 °C 29.95in /  1014.1hPa South 1mph /  1.6km/h 6mph /  9.7km/h 60% 0.00in /  0mm 87 W/m2
19:00 89.5 °F /  31.9 °C 73.8 °F /  23.2 °C 29.95in /  1014.1hPa South 2mph /  3.2km/h 5mph /  8km/h 60% 0.00in /  0mm 89 W/m2
19:10 88.3 °F /  31.3 °C 73.2 °F /  22.9 °C 29.95in /  1014.1hPa South 2mph /  3.2km/h 5mph /  8km/h 61% 0.00in /  0mm 75 W/m2
19:20 87.5 °F /  30.8 °C 71.9 °F /  22.2 °C 29.95in /  1014.1hPa South 2mph /  3.2km/h 4mph /  6.4km/h 60% 0.00in /  0mm 65 W/m2
19:30 86.7 °F /  30.4 °C 72.1 °F /  22.3 °C 29.95in /  1014.1hPa South 1mph /  1.6km/h 4mph /  6.4km/h 62% 0.00in /  0mm 44 W/m2
19:40 86 °F /  30 °C 71.9 °F /  22.2 °C 29.95in /  1014.1hPa SW 2mph /  3.2km/h 3mph /  4.8km/h 63% 0.00in /  0mm 26 W/m2
19:50 85 °F /  29.4 °C 71 °F /  21.7 °C 29.95in /  1014.1hPa SW 2mph /  3.2km/h 3mph /  4.8km/h 63% 0.00in /  0mm 10 W/m2
20:00 84.1 °F /  28.9 °C 70.1 °F /  21.2 °C 29.95in /  1014.1hPa South 1mph /  1.6km/h 5mph /  8km/h 63% 0.00in /  0mm 0 W/m2
20:10 83.1 °F /  28.4 °C 69.2 °F /  20.7 °C 29.95in /  1014.1hPa South 2mph /  3.2km/h 5mph /  8km/h 63% 0.00in /  0mm 0 W/m2
20:20 82.6 °F /  28.1 °C 69.2 °F /  20.7 °C 29.96in /  1014.4hPa SSW 1mph /  1.6km/h 3mph /  4.8km/h 64% 0.00in /  0mm 0 W/m2
20:30 82 °F /  27.8 °C 69.1 °F /  20.6 °C 29.96in /  1014.4hPa Calm   3mph /  4.8km/h 65% 0.00in /  0mm 0 W/m2
20:40 81.5 °F /  27.5 °C 70.3 °F /  21.3 °C 29.97in /  1014.8hPa SW 2mph /  3.2km/h 2mph /  3.2km/h 69% 0.00in /  0mm 0 W/m2
20:50 80.8 °F /  27.1 °C 70.9 °F /  21.6 °C 29.97in /  1014.8hPa SW 2mph /  3.2km/h 5mph /  8km/h 72% 0.00in /  0mm 0 W/m2
21:00 80.2 °F /  26.8 °C 70.4 °F /  21.3 °C 29.97in /  1014.8hPa SW 2mph /  3.2km/h 3mph /  4.8km/h 72% 0.00in /  0mm 0 W/m2
21:10 79.5 °F /  26.4 °C 70.1 °F /  21.2 °C 29.97in /  1014.8hPa WSW 2mph /  3.2km/h 4mph /  6.4km/h 73% 0.00in /  0mm 0 W/m2
21:20 79 °F /  26.1 °C 70 °F /  21.1 °C 29.97in /  1014.8hPa WSW 1mph /  1.6km/h 5mph /  8km/h 74% 0.00in /  0mm 0 W/m2
21:30 78.4 °F /  25.8 °C 69.9 °F /  21.1 °C 29.97in /  1014.8hPa West 1mph /  1.6km/h 3mph /  4.8km/h 75% 0.00in /  0mm 0 W/m2
21:40 77.9 °F /  25.5 °C 69.3 °F /  20.7 °C 29.97in /  1014.8hPa WSW 1mph /  1.6km/h 3mph /  4.8km/h 75% 0.00in /  0mm 0 W/m2
21:50 77.5 °F /  25.3 °C 68.6 °F /  20.3 °C 29.97in /  1014.8hPa WSW 2mph /  3.2km/h 3mph /  4.8km/h 74% 0.00in /  0mm 0 W/m2
22:00 77 °F /  25 °C 68.5 °F /  20.3 °C 29.97in /  1014.8hPa West 1mph /  1.6km/h 4mph /  6.4km/h 75% 0.00in /  0mm 0 W/m2
22:10 76.5 °F /  24.7 °C 68.7 °F /  20.4 °C 29.97in /  1014.8hPa Calm   2mph /  3.2km/h 77% 0.00in /  0mm 0 W/m2
22:20 75.9 °F /  24.4 °C 68.6 °F /  20.3 °C 29.98in /  1015.1hPa Calm   3mph /  4.8km/h 78% 0.00in /  0mm 0 W/m2
22:30 75.6 °F /  24.2 °C 67.8 °F /  19.9 °C 29.98in /  1015.1hPa WSW 1mph /  1.6km/h 2mph /  3.2km/h 77% 0.00in /  0mm 0 W/m2
22:40 74.8 °F /  23.8 °C 67.5 °F /  19.7 °C 29.98in /  1015.1hPa WSW 1mph /  1.6km/h 2mph /  3.2km/h 78% 0.00in /  0mm 0 W/m2
22:50 74.1 °F /  23.4 °C 66.8 °F /  19.3 °C 29.98in /  1015.1hPa WSW 1mph /  1.6km/h 5mph /  8km/h 78% 0.00in /  0mm 0 W/m2
23:00 73.8 °F /  23.2 °C 66.5 °F /  19.2 °C 29.98in /  1015.1hPa Calm   3mph /  4.8km/h 78% 0.00in /  0mm 0 W/m2
23:10 73.6 °F /  23.1 °C 66.7 °F /  19.3 °C 29.98in /  1015.1hPa Calm   2mph /  3.2km/h 79% 0.00in /  0mm 0 W/m2
23:20 73.4 °F /  23 °C 66.5 °F /  19.2 °C 29.98in /  1015.1hPa WSW 1mph /  1.6km/h 3mph /  4.8km/h 79% 0.00in /  0mm 0 W/m2
23:30 73.1 °F /  22.8 °C 65.8 °F /  18.8 °C 29.98in /  1015.1hPa South 2mph /  3.2km/h 3mph /  4.8km/h 78% 0.00in /  0mm 0 W/m2
23:40 72.7 °F /  22.6 °C 65.8 °F /  18.8 °C 29.98in /  1015.1hPa Calm   2mph /  3.2km/h 79% 0.00in /  0mm 0 W/m2
23:50 72.3 °F /  22.4 °C 65.8 °F /  18.8 °C 29.98in /  1015.1hPa Calm   2mph /  3.2km/h 80% 0.00in /  0mm 0 W/m2
Knjazevac, Serbia
Compliments of Weather Underground - 2 mb